createdAt,value
2022-11-12T00:00:39.531Z,8.46
2022-11-12T00:03:58.515Z,8.56
2022-11-12T00:06:57.080Z,8.75
2022-11-12T00:09:42.436Z,8.88
2022-11-12T00:12:28.163Z,8.84
2022-11-12T00:15:13.471Z,8.78
2022-11-12T00:17:59.024Z,8.87
2022-11-12T00:21:04.534Z,9.01
2022-11-12T00:24:03.010Z,8.91
2022-11-12T00:26:48.485Z,9.00
2022-11-12T00:29:54.558Z,9.10
2022-11-12T00:32:52.985Z,9.17
2022-11-12T00:35:38.505Z,9.06
2022-11-12T00:38:24.159Z,9.16
2022-11-12T00:41:09.706Z,8.98
2022-11-12T00:43:55.091Z,9.03
2022-11-12T00:46:40.576Z,9.07
2022-11-12T00:49:25.998Z,9.06
2022-11-12T00:52:10.932Z,8.97
2022-11-12T00:54:56.252Z,8.89
2022-11-12T00:57:41.420Z,8.84
2022-11-12T01:00:47.591Z,8.89
2022-11-12T01:04:06.626Z,8.84
2022-11-12T01:07:25.535Z,8.69
2022-11-12T01:10:24.154Z,8.85
2022-11-12T01:13:09.575Z,8.96
2022-11-12T01:15:54.840Z,8.73
2022-11-12T01:18:40.178Z,8.66
2022-11-12T01:21:26.787Z,8.48
2022-11-12T01:24:32.620Z,8.46
2022-11-12T01:27:31.026Z,8.41
2022-11-12T01:30:36.569Z,8.52
2022-11-12T01:33:34.986Z,8.20
2022-11-12T01:36:21.637Z,8.18
2022-11-12T01:39:08.375Z,8.22
2022-11-12T01:41:53.871Z,8.24
2022-11-12T01:44:42.587Z,8.17
2022-11-12T01:47:48.592Z,8.14
2022-11-12T01:50:47.675Z,8.11
2022-11-12T01:53:36.481Z,8.12
2022-11-12T01:56:22.746Z,8.21
2022-11-12T01:59:30.589Z,8.20
2022-11-12T02:02:50.602Z,8.01
2022-11-12T02:05:53.464Z,8.02
2022-11-12T02:08:38.923Z,8.07
2022-11-12T02:11:24.590Z,8.09
2022-11-12T02:14:10.077Z,8.05
2022-11-12T02:16:55.459Z,8.14
2022-11-12T02:19:40.901Z,7.90
2022-11-12T02:22:46.614Z,7.84
2022-11-12T02:25:45.122Z,7.90
2022-11-12T02:28:31.250Z,7.92
2022-11-12T02:31:43.625Z,7.93
2022-11-12T02:34:32.901Z,8.02
2022-11-12T02:37:18.637Z,7.91
2022-11-12T02:40:04.143Z,7.96
2022-11-12T02:42:49.589Z,8.00
2022-11-12T02:45:35.170Z,7.91
2022-11-12T02:48:20.738Z,7.86
2022-11-12T02:51:06.569Z,8.02
2022-11-12T02:54:12.620Z,7.87
2022-11-12T02:57:11.072Z,7.91
2022-11-12T02:59:56.221Z,8.06
2022-11-12T03:03:07.637Z,8.02
2022-11-12T03:06:01.150Z,7.98
2022-11-12T03:09:25.901Z,7.93
2022-11-12T03:12:45.620Z,7.95
2022-11-12T03:16:04.625Z,8.00
2022-11-12T03:19:03.125Z,7.92
2022-11-12T03:21:48.750Z,7.80
2022-11-12T03:24:54.620Z,7.91
2022-11-12T03:27:56.994Z,7.76
2022-11-12T03:31:02.635Z,7.79
2022-11-12T03:34:01.295Z,7.75
2022-11-12T03:36:46.600Z,7.83
2022-11-12T03:39:32.005Z,7.78
2022-11-12T03:42:17.351Z,7.70
2022-11-12T03:45:03.454Z,7.79
2022-11-12T03:47:49.751Z,7.79
2022-11-12T03:50:35.120Z,7.87
2022-11-12T03:53:20.414Z,8.06
2022-11-12T03:56:25.675Z,8.07
2022-11-12T03:59:24.045Z,8.13
2022-11-12T04:02:29.631Z,8.05
2022-11-12T04:06:07.665Z,8.05
2022-11-12T04:09:06.264Z,8.18
2022-11-12T04:11:51.693Z,8.13
2022-11-12T04:14:36.942Z,8.26
2022-11-12T04:17:40.720Z,8.27
2022-11-12T04:20:44.912Z,8.23
2022-11-12T04:23:30.128Z,8.16
2022-11-12T04:26:24.568Z,8.04
2022-11-12T04:29:48.751Z,8.15
2022-11-12T04:33:01.832Z,8.22
2022-11-12T04:36:00.412Z,8.16
2022-11-12T04:38:45.854Z,8.11
2022-11-12T04:41:56.665Z,8.05
2022-11-12T04:44:59.750Z,8.21
2022-11-12T04:47:45.395Z,8.10
2022-11-12T04:50:30.709Z,8.24
2022-11-12T04:53:16.348Z,8.19
2022-11-12T04:56:02.081Z,8.24
2022-11-12T04:58:47.562Z,8.38
2022-11-12T05:01:53.753Z,8.41
2022-11-12T05:05:12.691Z,8.51
2022-11-12T05:08:11.110Z,8.43
2022-11-12T05:10:56.343Z,8.49
2022-11-12T05:13:41.754Z,8.59
2022-11-12T05:16:27.475Z,8.51
2022-11-12T05:19:13.009Z,8.52
2022-11-12T05:22:13.924Z,8.62
2022-11-12T05:25:12.869Z,8.59
2022-11-12T05:27:58.197Z,8.63
2022-11-12T05:31:04.675Z,8.56
2022-11-12T05:34:03.501Z,8.55
2022-11-12T05:36:48.607Z,8.64
2022-11-12T05:39:34.135Z,8.69
2022-11-12T05:42:19.644Z,8.70
2022-11-12T05:45:26.742Z,8.68
2022-11-12T05:48:45.707Z,8.87
2022-11-12T05:51:37.937Z,8.99
2022-11-12T05:54:25.048Z,9.03
2022-11-12T05:57:10.375Z,9.06
2022-11-12T05:59:55.607Z,9.16
2022-11-12T06:03:00.803Z,9.25
2022-11-12T06:06:19.744Z,9.38
2022-11-12T06:09:18.297Z,9.28
2022-11-12T06:12:06.873Z,9.32
2022-11-12T06:15:12.746Z,9.31
2022-11-12T06:18:12.311Z,9.19
2022-11-12T06:21:19.736Z,9.36
2022-11-12T06:24:05.572Z,9.31
2022-11-12T06:26:50.912Z,9.48
2022-11-12T06:29:56.713Z,9.50
2022-11-12T06:32:55.116Z,9.58
2022-11-12T06:36:00.737Z,9.59
2022-11-12T06:38:59.286Z,9.49
2022-11-12T06:41:44.376Z,9.62
2022-11-12T06:44:29.911Z,9.69
2022-11-12T06:47:15.247Z,9.67
2022-11-12T06:50:00.735Z,9.45
2022-11-12T06:52:46.225Z,9.38
2022-11-12T06:55:31.732Z,9.48
2022-11-12T06:58:16.998Z,9.48
2022-11-12T07:01:27.804Z,9.56
2022-11-12T07:04:46.732Z,9.74
2022-11-12T07:08:05.770Z,9.86
2022-11-12T07:11:12.222Z,9.70
2022-11-12T07:13:57.795Z,9.95
2022-11-12T07:16:43.152Z,9.92
2022-11-12T07:19:28.852Z,9.99
2022-11-12T07:22:14.286Z,10.14
2022-11-12T07:24:59.768Z,10.37
2022-11-12T07:27:45.295Z,10.33
2022-11-12T07:30:50.863Z,10.24
2022-11-12T07:33:49.487Z,10.10
2022-11-12T07:36:34.813Z,10.12
2022-11-12T07:39:20.222Z,9.97
2022-11-12T07:42:06.309Z,9.85
2022-11-12T07:44:51.863Z,9.75
2022-11-12T07:47:36.953Z,9.92
2022-11-12T07:50:22.397Z,9.73
2022-11-12T07:53:07.649Z,9.82
2022-11-12T07:55:57.151Z,9.89
2022-11-12T08:02:05.805Z,10.02
2022-11-12T08:05:24.817Z,10.20
2022-11-12T08:08:23.383Z,9.90
2022-11-12T08:11:08.769Z,10.10
2022-11-12T08:13:53.728Z,10.25
2022-11-12T08:17:05.796Z,10.49
2022-11-12T08:20:24.779Z,10.78
2022-11-12T08:23:14.333Z,10.55
2022-11-12T08:26:04.409Z,10.42
2022-11-12T08:29:09.845Z,10.63
2022-11-12T08:32:08.301Z,10.94
2022-11-12T08:35:13.790Z,10.71
2022-11-12T08:38:14.066Z,10.71
2022-11-12T08:41:20.779Z,11.01
2022-11-12T08:44:19.320Z,10.94
2022-11-12T08:47:04.528Z,10.70
2022-11-12T08:49:50.029Z,10.99
2022-11-12T08:52:35.388Z,10.79
2022-11-12T08:55:47.798Z,10.95
2022-11-12T08:58:40.481Z,10.87
2022-11-12T09:01:45.904Z,10.77
2022-11-12T09:04:44.345Z,10.79
2022-11-12T09:07:48.924Z,10.79
2022-11-12T09:10:35.302Z,11.01
2022-11-12T09:13:20.631Z,10.96
2022-11-12T09:16:25.925Z,11.23
2022-11-12T09:19:44.829Z,11.64
2022-11-12T09:22:43.489Z,11.84
2022-11-12T09:25:29.343Z,11.88
2022-11-12T09:28:15.986Z,11.91
2022-11-12T09:31:27.836Z,11.92
2022-11-12T09:34:20.129Z,12.28
2022-11-12T09:37:05.886Z,12.32
2022-11-12T09:40:11.811Z,12.24
2022-11-12T09:43:31.102Z,12.36
2022-11-12T09:46:28.301Z,12.41
2022-11-12T09:49:34.854Z,11.99
2022-11-12T09:52:33.489Z,12.56
2022-11-12T09:55:22.763Z,12.55
2022-11-12T09:58:12.440Z,12.83
2022-11-12T10:01:25.857Z,12.63
2022-11-12T10:05:09.874Z,12.27
2022-11-12T10:08:28.827Z,12.82
2022-11-12T10:11:53.181Z,12.61
2022-11-12T10:14:57.449Z,12.42
2022-11-12T10:17:49.417Z,12.64
2022-11-12T10:20:56.172Z,12.99
2022-11-12T10:23:55.851Z,13.32
2022-11-12T10:27:15.895Z,13.00
2022-11-12T10:30:36.845Z,12.76
2022-11-12T10:33:35.461Z,13.34
2022-11-12T10:36:40.848Z,13.11
2022-11-12T10:39:59.843Z,13.26
2022-11-12T10:43:05.955Z,13.67
2022-11-12T10:45:51.727Z,13.43
2022-11-12T10:49:06.891Z,13.55
2022-11-12T10:52:20.335Z,13.31
2022-11-12T10:55:32.944Z,13.13
2022-11-12T10:58:31.486Z,13.62
2022-11-12T11:01:49.931Z,13.42
2022-11-12T11:05:08.878Z,13.64
2022-11-12T11:07:55.273Z,13.23
2022-11-12T11:10:40.615Z,13.79
2022-11-12T11:13:28.841Z,13.55
2022-11-12T11:16:18.966Z,13.62
2022-11-12T11:19:05.313Z,13.71
2022-11-12T11:21:50.653Z,13.71
2022-11-12T11:24:42.481Z,13.84
2022-11-12T11:27:37.178Z,14.08
2022-11-12T11:30:42.967Z,13.92
2022-11-12T11:34:20.063Z,13.10
2022-11-12T11:37:41.924Z,13.38
2022-11-12T11:40:48.310Z,13.88
2022-11-12T11:43:36.579Z,13.47
2022-11-12T11:46:37.261Z,13.78
2022-11-12T11:49:32.251Z,13.50
2022-11-12T11:52:17.910Z,13.80
2022-11-12T11:55:16.617Z,13.91
2022-11-12T11:58:01.876Z,14.19
2022-11-12T12:01:12.936Z,14.23
2022-11-12T12:04:11.678Z,14.04
2022-11-12T12:07:15.791Z,13.65
2022-11-12T12:10:16.713Z,14.29
2022-11-12T12:13:05.391Z,14.53
2022-11-12T12:16:02.694Z,14.57
2022-11-12T12:18:48.567Z,13.90
2022-11-12T12:21:36.586Z,13.91
2022-11-12T12:24:43.935Z,14.46
2022-11-12T12:28:05.480Z,14.44
2022-11-12T12:31:14.953Z,14.62
2022-11-12T12:34:36.932Z,14.36
2022-11-12T12:37:35.550Z,14.42
2022-11-12T12:40:25.155Z,14.22
2022-11-12T12:43:14.320Z,14.58
2022-11-12T12:45:59.812Z,14.36
2022-11-12T12:48:46.680Z,14.41
2022-11-12T12:51:55.743Z,14.41
2022-11-12T12:54:54.818Z,14.61
2022-11-12T12:57:59.957Z,14.52
2022-11-12T13:01:22.062Z,14.60
2022-11-12T13:04:40.284Z,14.64
2022-11-12T13:07:43.437Z,14.82
2022-11-12T13:10:54.957Z,14.69
2022-11-12T13:13:53.449Z,14.69
2022-11-12T13:16:51.315Z,14.53
2022-11-12T13:19:47.922Z,13.86
2022-11-12T13:22:36.389Z,14.11
2022-11-12T13:25:22.098Z,14.24
2022-11-12T13:28:10.918Z,14.13
2022-11-12T13:31:17.046Z,14.03
2022-11-12T13:34:21.920Z,14.05
2022-11-12T13:37:35.003Z,14.20
2022-11-12T13:41:18.999Z,14.26
2022-11-12T13:44:17.883Z,14.69
2022-11-12T13:47:03.315Z,14.52
2022-11-12T13:49:48.970Z,14.04
2022-11-12T13:52:54.091Z,13.79
2022-11-12T13:56:12.986Z,14.14
2022-11-12T13:59:15.225Z,13.68
2022-11-12T14:02:03.940Z,13.78
2022-11-12T14:04:50.505Z,13.80
2022-11-12T14:07:41.715Z,14.02
2022-11-12T14:11:04.002Z,14.16
2022-11-12T14:14:14.579Z,14.18
2022-11-12T14:17:23.033Z,14.10
2022-11-12T14:20:37.051Z,13.93
2022-11-12T14:23:37.250Z,13.63
2022-11-12T14:26:35.008Z,13.56
2022-11-12T14:29:36.172Z,13.65
2022-11-12T14:32:40.703Z,13.73
2022-11-12T14:35:38.846Z,13.82
2022-11-12T14:38:44.076Z,13.43
2022-11-12T14:42:03.018Z,13.28
2022-11-12T14:45:32.594Z,13.21
2022-11-12T14:49:03.094Z,13.13
2022-11-12T14:52:29.017Z,13.06
2022-11-12T14:55:50.035Z,13.17
2022-11-12T14:59:10.062Z,13.07
2022-11-12T15:05:52.259Z,13.07
2022-11-12T15:08:39.367Z,13.01
2022-11-12T15:11:58.021Z,13.02
2022-11-12T15:15:16.784Z,13.08
2022-11-12T15:18:07.436Z,13.01
2022-11-12T15:21:20.061Z,12.86
2022-11-12T15:24:40.062Z,12.87
2022-11-12T15:27:27.846Z,12.89
2022-11-12T15:30:37.053Z,12.77
2022-11-12T15:33:35.599Z,12.70
2022-11-12T15:36:22.101Z,12.55
2022-11-12T15:39:12.196Z,12.50
2022-11-12T15:42:29.089Z,12.64
2022-11-12T15:45:27.836Z,12.66
2022-11-12T15:48:13.371Z,12.46
2022-11-12T15:51:26.906Z,12.28
2022-11-12T15:54:46.089Z,12.22
2022-11-12T15:58:06.129Z,12.07
2022-11-12T16:01:25.254Z,12.08
2022-11-12T16:04:44.213Z,12.09
2022-11-12T16:07:36.211Z,11.99
2022-11-12T16:10:44.552Z,11.88
2022-11-12T16:13:43.001Z,11.69
2022-11-12T16:16:34.516Z,11.52
2022-11-12T16:19:20.196Z,11.45
2022-11-12T16:22:26.398Z,11.41
2022-11-12T16:25:46.295Z,11.24
2022-11-12T16:29:06.244Z,11.08
2022-11-12T16:32:28.259Z,11.04
2022-11-12T16:35:16.791Z,11.10
2022-11-12T16:38:02.276Z,11.08
2022-11-12T16:40:47.930Z,11.11
2022-11-12T16:43:33.336Z,11.14
2022-11-12T16:46:34.756Z,11.16
2022-11-12T16:49:40.099Z,11.21
2022-11-12T16:52:59.167Z,11.19
2022-11-12T16:55:57.753Z,11.12
2022-11-12T16:59:10.146Z,11.10
2022-11-12T17:02:27.108Z,11.31
2022-11-12T17:05:26.022Z,11.48
2022-11-12T17:08:11.408Z,11.33
2022-11-12T17:11:21.235Z,11.55
2022-11-12T17:14:24.300Z,11.59
2022-11-12T17:17:40.203Z,11.47
2022-11-12T17:20:59.133Z,11.51
2022-11-12T17:24:18.126Z,11.33
2022-11-12T17:27:21.894Z,11.32
2022-11-12T17:30:27.140Z,11.39
2022-11-12T17:33:25.835Z,11.32
2022-11-12T17:36:16.666Z,11.32
2022-11-12T17:39:01.964Z,11.33
2022-11-12T17:41:47.361Z,11.34
2022-11-12T17:44:34.213Z,11.32
2022-11-12T17:47:19.808Z,11.25
2022-11-12T17:50:05.183Z,11.14
2022-11-12T17:53:17.136Z,11.16
2022-11-12T17:56:37.358Z,11.07
2022-11-12T17:59:40.085Z,10.83
2022-11-12T18:02:25.474Z,11.23
2022-11-12T18:05:11.524Z,11.09
2022-11-12T18:07:57.047Z,11.14
2022-11-12T18:10:55.152Z,11.35
2022-11-12T18:14:19.141Z,11.21
2022-11-12T18:17:17.628Z,11.11
2022-11-12T18:20:23.139Z,11.10
2022-11-12T18:23:42.146Z,10.88
2022-11-12T18:27:02.146Z,10.83
2022-11-12T18:30:19.141Z,10.77
2022-11-12T18:33:38.363Z,10.77
2022-11-12T18:36:37.174Z,10.75
2022-11-12T18:39:22.401Z,10.64
2022-11-12T18:42:07.897Z,10.74
2022-11-12T18:44:53.297Z,10.48
2022-11-12T18:47:38.988Z,10.53
2022-11-12T18:50:24.466Z,10.50
2022-11-12T18:53:09.551Z,10.35
2022-11-12T18:55:56.435Z,10.36
2022-11-12T18:58:42.131Z,10.31
2022-11-12T19:01:50.336Z,10.09
2022-11-12T19:05:10.258Z,10.11
2022-11-12T19:08:08.710Z,10.11
2022-11-12T19:11:14.221Z,10.08
2022-11-12T19:14:12.776Z,10.13
2022-11-12T19:17:04.953Z,10.14
2022-11-12T19:20:05.483Z,9.77
2022-11-12T19:22:50.939Z,9.90
2022-11-12T19:25:36.418Z,9.79
2022-11-12T19:28:22.478Z,9.81
2022-11-12T19:31:36.219Z,9.86
2022-11-12T19:34:53.938Z,10.02
2022-11-12T19:37:39.563Z,9.94
2022-11-12T19:40:25.323Z,9.82
2022-11-12T19:43:10.454Z,9.96
2022-11-12T19:45:55.984Z,10.04
2022-11-12T19:48:41.467Z,9.89
2022-11-12T19:51:26.976Z,9.93
2022-11-12T19:54:12.616Z,10.00
2022-11-12T19:56:58.105Z,9.96
2022-11-12T20:00:04.204Z,9.85
2022-11-12T20:03:24.217Z,9.56
2022-11-12T20:06:25.611Z,9.39
2022-11-12T20:09:11.014Z,9.41
2022-11-12T20:12:16.185Z,9.47
2022-11-12T20:15:35.223Z,9.56
2022-11-12T20:18:54.206Z,9.71
2022-11-12T20:22:13.238Z,9.86
2022-11-12T20:25:05.638Z,9.92
2022-11-12T20:28:11.226Z,9.94
2022-11-12T20:31:31.248Z,9.93
2022-11-12T20:34:50.285Z,9.85
2022-11-12T20:38:09.243Z,9.72
2022-11-12T20:41:04.663Z,9.63
2022-11-12T20:43:53.943Z,9.62
2022-11-12T20:46:40.246Z,9.49
2022-11-12T20:49:27.942Z,9.46
2022-11-12T20:52:15.688Z,9.46
2022-11-12T20:55:21.310Z,9.33
2022-11-12T20:58:19.787Z,9.35
2022-11-12T21:01:26.450Z,9.40
2022-11-12T21:04:24.913Z,9.60
2022-11-12T21:07:10.923Z,9.73
2022-11-12T21:10:09.285Z,9.87
2022-11-12T21:13:07.975Z,9.98
2022-11-12T21:16:13.377Z,9.85
2022-11-12T21:19:32.253Z,9.86
2022-11-12T21:22:32.166Z,9.86
2022-11-12T21:25:17.210Z,9.66
2022-11-12T21:28:02.629Z,9.73
2022-11-12T21:31:08.282Z,9.80
2022-11-12T21:34:07.185Z,9.55
2022-11-12T21:37:19.273Z,9.79
2022-11-12T21:40:11.437Z,9.89
2022-11-12T21:42:56.958Z,9.93
2022-11-12T21:45:46.539Z,9.78
2022-11-12T21:48:32.186Z,9.63
2022-11-12T21:51:41.259Z,9.71
2022-11-12T21:54:33.768Z,9.79
2022-11-12T21:57:19.692Z,9.93
2022-11-12T22:00:34.692Z,10.02
2022-11-12T22:03:38.264Z,9.81
2022-11-12T22:06:38.459Z,9.67
2022-11-12T22:09:24.076Z,9.95
2022-11-12T22:12:30.268Z,9.90
2022-11-12T22:15:24.447Z,9.82
2022-11-12T22:18:30.596Z,9.98
2022-11-12T22:21:49.274Z,10.01
2022-11-12T22:24:48.054Z,10.01
2022-11-12T22:27:54.280Z,10.23
2022-11-12T22:31:21.323Z,10.26
2022-11-12T22:34:40.265Z,10.29
2022-11-12T22:37:38.406Z,10.33
2022-11-12T22:40:23.710Z,10.15
2022-11-12T22:43:09.140Z,10.21
2022-11-12T22:46:18.313Z,10.20
2022-11-12T22:49:38.310Z,10.05
2022-11-12T22:52:36.759Z,9.91
2022-11-12T22:55:22.278Z,9.92
2022-11-12T22:58:07.445Z,10.08
2022-11-12T23:00:53.046Z,10.03
2022-11-12T23:03:38.210Z,10.01
2022-11-12T23:06:23.933Z,9.94
2022-11-12T23:09:14.149Z,9.90
2022-11-12T23:12:19.303Z,9.86
2022-11-12T23:15:38.302Z,9.79
2022-11-12T23:18:36.775Z,9.87
2022-11-12T23:21:24.058Z,9.96
2022-11-12T23:24:09.773Z,9.96
2022-11-12T23:26:55.381Z,10.00
2022-11-12T23:30:01.311Z,9.83
2022-11-12T23:33:20.310Z,9.87
2022-11-12T23:36:19.687Z,10.02
2022-11-12T23:39:25.297Z,10.13
2022-11-12T23:42:23.655Z,9.99
2022-11-12T23:45:36.328Z,9.73
2022-11-12T23:48:55.328Z,9.56
2022-11-12T23:51:42.490Z,9.87
2022-11-12T23:54:27.820Z,9.79
2022-11-12T23:57:12.970Z,9.83
2022-11-12T23:59:58.524Z,9.73
